createdAt,value
2023-02-24T00:02:05.726Z,134.00
2023-02-24T00:04:39.643Z,149.07
2023-02-24T00:07:11.185Z,139.43
2023-02-24T00:09:39.252Z,132.40
2023-02-24T00:12:10.245Z,126.43
2023-02-24T00:14:39.958Z,136.73
2023-02-24T00:17:10.632Z,136.45
2023-02-24T00:19:38.373Z,118.72
2023-02-24T00:22:07.784Z,121.75
2023-02-24T00:24:35.871Z,117.78
2023-02-24T00:27:07.778Z,112.00
2023-02-24T00:29:37.639Z,107.18
2023-02-24T00:32:07.257Z,105.55
2023-02-24T00:34:36.473Z,106.13
2023-02-24T00:37:06.932Z,98.03
2023-02-24T00:39:34.737Z,104.90
2023-02-24T00:42:06.502Z,91.82
2023-02-24T00:44:38.663Z,94.03
2023-02-24T00:47:07.992Z,84.05
2023-02-24T00:49:35.944Z,87.07
2023-02-24T00:52:04.816Z,91.00
2023-02-24T00:54:32.332Z,90.18
2023-02-24T00:56:59.148Z,80.88
2023-02-24T00:59:26.162Z,95.50
2023-02-24T01:01:54.656Z,84.45
2023-02-24T01:04:22.247Z,95.32
2023-02-24T01:06:52.144Z,84.85
2023-02-24T01:09:21.113Z,83.75
2023-02-24T01:12:18.143Z,86.05
2023-02-24T01:14:49.726Z,94.45
2023-02-24T01:17:19.251Z,89.65
2023-02-24T01:19:49.979Z,94.63
2023-02-24T01:22:18.757Z,96.70
2023-02-24T01:24:45.683Z,94.50
2023-02-24T01:27:13.977Z,97.40
2023-02-24T01:29:41.109Z,102.63
2023-02-24T01:32:20.394Z,104.63
2023-02-24T01:34:47.764Z,96.95
2023-02-24T01:37:19.206Z,104.60
2023-02-24T01:39:46.497Z,96.45
2023-02-24T01:42:20.156Z,105.88
2023-02-24T01:44:47.517Z,111.38
2023-02-24T01:47:18.227Z,117.20
2023-02-24T01:49:48.152Z,119.97
2023-02-24T01:52:20.274Z,118.95
2023-02-24T01:54:55.100Z,125.22
2023-02-24T01:57:25.972Z,129.48
2023-02-24T01:59:54.672Z,134.13
2023-02-24T02:02:23.762Z,132.73
2023-02-24T02:04:51.836Z,132.10
2023-02-24T02:07:21.972Z,128.90
2023-02-24T02:09:49.973Z,126.35
2023-02-24T02:12:17.614Z,129.23
2023-02-24T02:14:52.465Z,131.82
2023-02-24T02:17:54.830Z,130.65
2023-02-24T02:20:55.831Z,129.40
2023-02-24T02:23:45.803Z,127.88
2023-02-24T02:26:18.940Z,134.05
2023-02-24T02:29:09.815Z,125.65
2023-02-24T02:31:50.906Z,130.63
2023-02-24T02:34:45.834Z,139.00
2023-02-24T02:37:20.142Z,140.95
2023-02-24T02:39:46.918Z,132.00
2023-02-24T02:42:42.552Z,138.70
2023-02-24T02:45:23.089Z,133.50
2023-02-24T02:48:03.406Z,127.10
2023-02-24T02:50:49.745Z,122.97
2023-02-24T02:53:46.563Z,127.57
2023-02-24T02:56:22.141Z,124.35
2023-02-24T02:58:53.837Z,128.93
2023-02-24T03:01:25.192Z,119.45
2023-02-24T03:03:56.746Z,114.93
2023-02-24T03:06:30.231Z,117.30
2023-02-24T03:09:15.944Z,116.53
2023-02-24T03:11:48.251Z,119.00
2023-02-24T03:14:17.705Z,108.50
2023-02-24T03:16:47.196Z,113.53
2023-02-24T03:19:17.694Z,112.72
2023-02-24T03:21:51.889Z,111.82
2023-02-24T03:24:19.172Z,109.63
2023-02-24T03:26:49.857Z,112.43
2023-02-24T03:29:24.267Z,110.80
2023-02-24T03:31:59.535Z,105.93
2023-02-24T03:34:41.468Z,116.50
2023-02-24T03:37:08.442Z,110.80
2023-02-24T03:39:36.581Z,108.68
2023-02-24T03:42:12.904Z,109.40
2023-02-24T03:44:39.758Z,105.93
2023-02-24T03:47:09.618Z,108.68
2023-02-24T03:49:38.475Z,106.35
2023-02-24T03:52:29.162Z,113.13
2023-02-24T03:55:16.548Z,108.20
2023-02-24T03:57:55.274Z,116.97
2023-02-24T04:00:45.707Z,119.03
2023-02-24T04:03:34.070Z,116.25
2023-02-24T04:06:24.429Z,114.63
2023-02-24T04:09:02.541Z,111.28
2023-02-24T04:11:46.584Z,110.47
2023-02-24T04:14:24.985Z,114.03
2023-02-24T04:17:00.652Z,118.28
2023-02-24T04:19:38.440Z,125.60
2023-02-24T04:22:09.967Z,132.05
2023-02-24T04:24:39.577Z,128.98
2023-02-24T04:27:11.439Z,133.32
2023-02-24T04:29:47.268Z,132.63
2023-02-24T04:32:17.224Z,125.65
2023-02-24T04:34:45.564Z,130.95
2023-02-24T04:37:12.405Z,116.78
2023-02-24T04:39:39.252Z,114.55
2023-02-24T04:42:06.878Z,122.03
2023-02-24T04:44:33.848Z,115.22
2023-02-24T04:47:00.907Z,113.07
2023-02-24T04:49:27.840Z,111.15
2023-02-24T04:51:57.313Z,107.68
2023-02-24T04:54:24.408Z,105.38
2023-02-24T04:56:52.324Z,106.13
2023-02-24T04:59:20.185Z,106.55
2023-02-24T05:01:47.452Z,109.38
2023-02-24T05:04:14.684Z,111.38
2023-02-24T05:06:43.959Z,115.05
2023-02-24T05:09:18.808Z,114.95
2023-02-24T05:11:49.053Z,119.45
2023-02-24T05:14:18.680Z,122.35
2023-02-24T05:16:47.335Z,120.63
2023-02-24T05:19:36.191Z,115.30
2023-02-24T05:22:04.752Z,116.85
2023-02-24T05:24:31.756Z,109.85
2023-02-24T05:26:59.366Z,105.05
2023-02-24T05:29:31.586Z,111.05
2023-02-24T05:32:00.001Z,113.55
2023-02-24T05:34:30.625Z,114.43
2023-02-24T05:36:59.815Z,107.00
2023-02-24T05:39:27.247Z,107.18
2023-02-24T05:41:57.354Z,118.82
2023-02-24T05:44:26.711Z,113.25
2023-02-24T05:46:59.510Z,122.10
2023-02-24T05:49:33.892Z,114.22
2023-02-24T05:52:07.629Z,118.90
2023-02-24T05:54:41.618Z,103.20
2023-02-24T05:57:17.061Z,105.57
2023-02-24T05:59:44.926Z,106.13
2023-02-24T06:02:17.649Z,114.57
2023-02-24T06:04:51.003Z,106.15
2023-02-24T06:07:24.964Z,107.22
2023-02-24T06:09:56.560Z,103.78
2023-02-24T06:12:33.766Z,104.20
2023-02-24T06:15:01.647Z,120.32
2023-02-24T06:17:29.090Z,118.78
2023-02-24T06:19:56.029Z,121.70
2023-02-24T06:22:25.145Z,117.13
2023-02-24T06:24:54.299Z,110.93
2023-02-24T06:27:24.955Z,122.20
2023-02-24T06:29:54.456Z,119.50
2023-02-24T06:32:24.898Z,123.30
2023-02-24T06:34:54.002Z,123.60
2023-02-24T06:37:23.414Z,117.15
2023-02-24T06:39:50.969Z,121.80
2023-02-24T06:42:17.788Z,132.80
2023-02-24T06:44:45.351Z,147.85
2023-02-24T06:47:14.153Z,132.10
2023-02-24T06:49:42.987Z,129.63
2023-02-24T06:52:11.549Z,136.43
2023-02-24T06:54:38.520Z,134.18
2023-02-24T06:57:05.481Z,133.32
2023-02-24T06:59:32.429Z,133.15
2023-02-24T07:02:02.009Z,142.20
2023-02-24T07:04:29.354Z,151.27
2023-02-24T07:07:03.519Z,138.82
2023-02-24T07:09:32.063Z,140.48
2023-02-24T07:12:02.495Z,139.20
2023-02-24T07:14:32.500Z,138.23
2023-02-24T07:17:00.426Z,140.02
2023-02-24T07:19:29.621Z,132.70
2023-02-24T07:22:02.197Z,127.95
2023-02-24T07:24:33.762Z,127.78
2023-02-24T07:27:06.492Z,129.80
2023-02-24T07:29:35.502Z,129.90
2023-02-24T07:32:05.835Z,130.38
2023-02-24T07:34:33.972Z,134.73
2023-02-24T07:37:07.822Z,139.43
2023-02-24T07:39:37.018Z,137.45
2023-02-24T07:42:04.323Z,144.10
2023-02-24T07:44:31.215Z,146.73
2023-02-24T07:46:59.437Z,132.50
2023-02-24T07:49:30.348Z,145.75
2023-02-24T07:51:58.207Z,149.45
2023-02-24T07:54:30.170Z,141.93
2023-02-24T07:56:59.578Z,150.68
2023-02-24T07:59:32.681Z,138.95
2023-02-24T08:02:00.616Z,150.68
2023-02-24T08:04:30.179Z,137.35
2023-02-24T08:07:02.606Z,141.82
2023-02-24T08:09:46.652Z,132.48
2023-02-24T08:12:21.471Z,146.27
2023-02-24T08:14:51.711Z,142.30
2023-02-24T08:17:20.825Z,158.32
2023-02-24T08:19:52.666Z,150.38
2023-02-24T08:22:19.613Z,151.70
2023-02-24T08:24:50.283Z,149.88
2023-02-24T08:27:22.103Z,150.65
2023-02-24T08:30:02.807Z,158.13
2023-02-24T08:32:47.183Z,162.55
2023-02-24T08:35:17.084Z,160.55
2023-02-24T08:37:49.911Z,153.18
2023-02-24T08:40:49.787Z,152.52
2023-02-24T08:43:26.169Z,157.88
2023-02-24T08:45:59.531Z,156.07
2023-02-24T08:48:37.501Z,164.52
2023-02-24T08:51:09.641Z,165.00
2023-02-24T08:53:40.655Z,166.98
2023-02-24T08:56:11.638Z,169.43
2023-02-24T08:58:47.574Z,165.80
2023-02-24T09:01:20.572Z,154.20
2023-02-24T09:03:49.554Z,160.85
2023-02-24T09:06:25.570Z,158.27
2023-02-24T09:09:14.568Z,159.20
2023-02-24T09:11:44.203Z,157.30
2023-02-24T09:14:27.130Z,159.30
2023-02-24T09:17:03.273Z,154.00
2023-02-24T09:19:59.453Z,146.63
2023-02-24T09:22:32.947Z,154.88
2023-02-24T09:25:18.481Z,150.57
2023-02-24T09:28:07.908Z,150.73
2023-02-24T09:31:05.153Z,153.77
2023-02-24T09:33:41.659Z,151.15
2023-02-24T09:36:20.156Z,143.40
2023-02-24T09:39:01.525Z,149.02
2023-02-24T09:41:56.598Z,147.88
2023-02-24T09:44:44.603Z,148.05
2023-02-24T09:47:17.222Z,153.27
2023-02-24T09:49:59.169Z,146.13
2023-02-24T09:53:02.926Z,137.73
2023-02-24T09:56:03.943Z,142.13
2023-02-24T09:58:48.000Z,136.68
2023-02-24T10:01:42.962Z,133.02
2023-02-24T10:04:36.323Z,149.65
2023-02-24T10:07:14.135Z,136.55
2023-02-24T10:10:18.380Z,137.73
2023-02-24T10:13:14.880Z,129.35
2023-02-24T10:15:59.041Z,138.07
2023-02-24T10:19:16.289Z,134.73
2023-02-24T10:22:02.577Z,141.88
2023-02-24T10:24:37.804Z,148.80
2023-02-24T10:27:17.173Z,138.90
2023-02-24T10:30:05.826Z,141.32
2023-02-24T10:32:58.736Z,131.88
2023-02-24T10:35:34.128Z,136.50
2023-02-24T10:38:08.731Z,142.55
2023-02-24T10:40:50.720Z,152.35
2023-02-24T10:43:20.206Z,138.30
2023-02-24T10:45:48.168Z,141.02
2023-02-24T10:48:42.056Z,131.95
2023-02-24T10:51:20.155Z,128.85
2023-02-24T10:54:10.376Z,133.68
2023-02-24T10:56:55.494Z,129.68
2023-02-24T10:59:25.245Z,123.35
2023-02-24T11:02:24.532Z,151.02
2023-02-24T11:05:04.348Z,118.85
2023-02-24T11:07:46.695Z,119.60
2023-02-24T11:10:25.853Z,137.05
2023-02-24T11:13:15.559Z,196.63
2023-02-24T11:16:05.169Z,136.52
2023-02-24T11:18:32.906Z,127.60
2023-02-24T11:21:00.987Z,115.25
2023-02-24T11:23:35.061Z,123.63
2023-02-24T11:26:33.484Z,116.55
2023-02-24T11:29:25.274Z,113.03
2023-02-24T11:32:06.642Z,114.00
2023-02-24T11:35:04.365Z,111.30
2023-02-24T11:37:40.014Z,107.75
2023-02-24T11:40:18.761Z,109.82
2023-02-24T11:43:03.715Z,115.53
2023-02-24T11:45:39.908Z,114.65
2023-02-24T11:48:17.893Z,109.95
2023-02-24T11:51:02.349Z,119.97
2023-02-24T11:53:32.787Z,118.35
2023-02-24T11:56:09.329Z,113.32
2023-02-24T11:58:44.522Z,112.13
2023-02-24T12:01:16.213Z,111.95
2023-02-24T12:03:50.466Z,109.25
2023-02-24T12:06:27.545Z,111.43
2023-02-24T12:09:01.021Z,107.68
2023-02-24T12:11:55.724Z,110.07
2023-02-24T12:14:30.772Z,99.97
2023-02-24T12:17:18.061Z,110.10
2023-02-24T12:20:02.589Z,108.63
2023-02-24T12:22:44.716Z,111.85
2023-02-24T12:27:49.058Z,107.45
2023-02-24T12:30:23.308Z,108.07
2023-02-24T12:33:00.709Z,102.82
2023-02-24T12:35:56.915Z,113.63
2023-02-24T12:38:50.588Z,115.35
2023-02-24T12:41:33.622Z,105.97
2023-02-24T12:44:21.604Z,106.40
2023-02-24T12:46:57.272Z,105.63
2023-02-24T12:49:51.585Z,101.72
2023-02-24T12:52:39.619Z,109.63
2023-02-24T12:55:34.491Z,124.07
2023-02-24T12:58:17.444Z,112.63
2023-02-24T13:01:15.136Z,116.38
2023-02-24T13:03:54.303Z,111.88
2023-02-24T13:07:04.188Z,119.47
2023-02-24T13:09:49.562Z,117.80
2023-02-24T13:12:29.216Z,108.88
2023-02-24T13:14:56.350Z,115.75
2023-02-24T13:17:27.070Z,115.65
2023-02-24T13:19:55.805Z,113.18
2023-02-24T13:22:27.028Z,116.72
2023-02-24T13:25:09.039Z,121.65
2023-02-24T13:27:38.919Z,113.78
2023-02-24T13:30:26.284Z,105.05
2023-02-24T13:33:20.465Z,116.32
2023-02-24T13:35:50.297Z,113.60
2023-02-24T13:38:35.491Z,115.88
2023-02-24T13:41:20.449Z,112.85
2023-02-24T13:43:58.543Z,111.70
2023-02-24T13:46:29.102Z,113.78
2023-02-24T13:49:28.096Z,101.10
2023-02-24T13:52:00.796Z,110.82
2023-02-24T13:54:36.184Z,115.40
2023-02-24T13:57:16.710Z,113.00
2023-02-24T13:59:57.637Z,113.22
2023-02-24T14:02:28.911Z,122.35
2023-02-24T14:05:00.179Z,116.13
2023-02-24T14:07:33.768Z,115.72
2023-02-24T14:10:05.345Z,110.18
2023-02-24T14:12:35.582Z,108.43
2023-02-24T14:15:04.226Z,115.05
2023-02-24T14:17:34.442Z,108.13
2023-02-24T14:20:09.897Z,112.57
2023-02-24T14:22:49.297Z,115.10
2023-02-24T14:25:17.989Z,110.90
2023-02-24T14:27:48.777Z,112.57
2023-02-24T14:30:26.617Z,114.45
2023-02-24T14:32:53.982Z,106.20
2023-02-24T14:35:29.934Z,117.82
2023-02-24T14:37:57.790Z,109.18
2023-02-24T14:40:25.716Z,114.78
2023-02-24T14:42:54.553Z,107.13
2023-02-24T14:45:26.028Z,107.60
2023-02-24T14:47:54.635Z,99.65
2023-02-24T14:50:34.177Z,111.72
2023-02-24T14:53:14.597Z,102.32
2023-02-24T14:55:45.908Z,100.47
2023-02-24T14:58:24.364Z,109.18
2023-02-24T15:00:56.788Z,96.55
2023-02-24T15:03:37.555Z,94.68
2023-02-24T15:06:15.151Z,98.40
2023-02-24T15:08:55.358Z,98.38
2023-02-24T15:11:25.839Z,139.30
2023-02-24T15:13:55.625Z,89.72
2023-02-24T15:16:22.794Z,81.00
2023-02-24T15:18:55.175Z,86.20
2023-02-24T15:21:28.267Z,85.18
2023-02-24T15:24:00.512Z,79.22
2023-02-24T15:26:33.330Z,80.38
2023-02-24T15:29:14.332Z,76.13
2023-02-24T15:31:47.647Z,75.32
2023-02-24T15:34:23.468Z,78.90
2023-02-24T15:37:03.309Z,81.05
2023-02-24T15:39:32.407Z,83.47
2023-02-24T15:42:20.274Z,82.78
2023-02-24T15:45:23.129Z,80.90
2023-02-24T15:47:56.690Z,79.65
2023-02-24T15:50:24.245Z,80.63
2023-02-24T15:52:51.129Z,80.88
2023-02-24T15:55:20.311Z,79.93
2023-02-24T15:57:48.832Z,81.72
2023-02-24T16:00:17.791Z,86.30
2023-02-24T16:02:45.510Z,84.00
2023-02-24T16:05:16.103Z,93.65
2023-02-24T16:07:47.662Z,84.90
2023-02-24T16:10:25.780Z,83.10
2023-02-24T16:12:55.976Z,81.47
2023-02-24T16:15:30.234Z,104.70
2023-02-24T16:17:58.147Z,83.00
2023-02-24T16:20:27.636Z,95.32
2023-02-24T16:22:56.302Z,84.82
2023-02-24T16:25:23.234Z,92.90
2023-02-24T16:27:50.194Z,86.10
2023-02-24T16:30:22.616Z,89.20
2023-02-24T16:32:50.088Z,100.85
2023-02-24T16:35:18.285Z,104.95
2023-02-24T16:37:47.576Z,101.32
2023-02-24T16:40:33.615Z,92.00
2023-02-24T16:43:00.490Z,94.55
2023-02-24T16:45:29.642Z,99.15
2023-02-24T16:48:01.249Z,97.28
2023-02-24T16:50:35.000Z,96.55
2023-02-24T16:53:02.131Z,93.88
2023-02-24T16:55:28.907Z,89.15
2023-02-24T16:57:55.896Z,97.68
2023-02-24T17:00:24.390Z,101.57
2023-02-24T17:02:52.524Z,96.22
2023-02-24T17:05:25.303Z,93.85
2023-02-24T17:07:54.421Z,106.55
2023-02-24T17:10:22.435Z,88.97
2023-02-24T17:12:49.408Z,101.25
2023-02-24T17:15:19.186Z,91.43
2023-02-24T17:17:47.041Z,101.88
2023-02-24T17:20:16.562Z,91.90
2023-02-24T17:22:44.017Z,99.97
2023-02-24T17:25:24.623Z,99.55
2023-02-24T17:27:54.702Z,100.30
2023-02-24T17:30:28.291Z,99.05
2023-02-24T17:32:55.694Z,98.85
2023-02-24T17:35:22.763Z,100.55
2023-02-24T17:37:49.704Z,101.70
2023-02-24T17:40:17.293Z,103.53
2023-02-24T17:42:44.078Z,100.10
2023-02-24T17:45:12.426Z,99.47
2023-02-24T17:47:39.659Z,124.30
2023-02-24T17:50:07.232Z,101.43
2023-02-24T17:52:34.247Z,118.45
2023-02-24T17:55:01.161Z,109.72
2023-02-24T17:57:29.481Z,107.28
2023-02-24T17:59:56.326Z,107.43
2023-02-24T18:02:24.507Z,105.70
2023-02-24T18:04:51.697Z,100.70
2023-02-24T18:07:18.989Z,98.53
2023-02-24T18:09:45.922Z,101.63
2023-02-24T18:12:12.980Z,95.15
2023-02-24T18:14:39.935Z,97.88
2023-02-24T18:17:06.700Z,99.35
2023-02-24T18:19:33.458Z,100.75
2023-02-24T18:22:00.289Z,103.10
2023-02-24T18:24:27.165Z,116.38
2023-02-24T18:26:55.182Z,119.55
2023-02-24T18:29:22.213Z,112.82
2023-02-24T18:31:49.401Z,107.85
2023-02-24T18:34:16.348Z,103.63
2023-02-24T18:36:43.144Z,116.78
2023-02-24T18:39:10.185Z,109.55
2023-02-24T18:41:36.999Z,115.35
2023-02-24T18:44:03.878Z,115.97
2023-02-24T18:46:30.888Z,102.45
2023-02-24T18:48:57.945Z,105.97
2023-02-24T18:51:29.214Z,102.47
2023-02-24T18:53:58.917Z,121.85
2023-02-24T18:56:27.272Z,129.60
2023-02-24T18:58:56.630Z,116.22
2023-02-24T19:01:41.481Z,108.32
2023-02-24T19:04:08.991Z,111.47
2023-02-24T19:06:36.535Z,106.50
2023-02-24T19:09:11.759Z,106.97
2023-02-24T19:11:40.450Z,103.43
2023-02-24T19:14:07.992Z,112.82
2023-02-24T19:16:36.405Z,97.50
2023-02-24T19:19:03.858Z,111.80
2023-02-24T19:21:32.360Z,109.60
2023-02-24T19:24:03.968Z,111.00
2023-02-24T19:26:30.799Z,102.65
2023-02-24T19:28:58.556Z,103.90
2023-02-24T19:31:28.390Z,106.97
2023-02-24T19:34:02.520Z,114.32
2023-02-24T19:36:31.687Z,115.57
2023-02-24T19:38:58.742Z,106.22
2023-02-24T19:41:25.765Z,100.15
2023-02-24T19:43:52.955Z,115.30
2023-02-24T19:46:20.293Z,108.25
2023-02-24T19:48:47.221Z,107.93
2023-02-24T19:51:20.353Z,122.07
2023-02-24T19:53:48.099Z,110.22
2023-02-24T19:56:15.182Z,110.80
2023-02-24T19:58:41.967Z,117.07
2023-02-24T20:01:13.849Z,118.75
2023-02-24T20:03:42.492Z,120.30
2023-02-24T20:06:23.366Z,120.72
2023-02-24T20:08:50.279Z,116.45
2023-02-24T20:11:18.648Z,120.20
2023-02-24T20:13:45.994Z,134.70
2023-02-24T20:16:15.988Z,110.10
2023-02-24T20:18:44.705Z,118.60
2023-02-24T20:21:12.844Z,110.30
2023-02-24T20:23:40.751Z,123.75
2023-02-24T20:26:10.149Z,108.25
2023-02-24T20:28:37.034Z,114.90
2023-02-24T20:31:12.484Z,118.97
2023-02-24T20:33:40.821Z,106.35
2023-02-24T20:36:09.921Z,121.43
2023-02-24T20:38:37.813Z,118.28
2023-02-24T20:41:05.294Z,129.13
2023-02-24T20:43:32.754Z,120.30
2023-02-24T20:46:00.221Z,125.90
2023-02-24T20:48:27.231Z,129.68
2023-02-24T20:50:54.023Z,119.03
2023-02-24T20:53:20.779Z,110.30
2023-02-24T20:55:47.536Z,112.15
2023-02-24T20:58:14.280Z,121.15
2023-02-24T21:00:41.193Z,133.80
2023-02-24T21:03:11.881Z,129.40
2023-02-24T21:05:39.416Z,121.22
2023-02-24T21:08:06.322Z,125.90
2023-02-24T21:10:33.145Z,129.52
2023-02-24T21:12:59.958Z,116.03
2023-02-24T21:15:26.976Z,116.20
2023-02-24T21:17:53.824Z,109.78
2023-02-24T21:20:20.726Z,121.60
2023-02-24T21:22:47.552Z,120.53
2023-02-24T21:25:14.472Z,115.13
2023-02-24T21:27:41.327Z,120.60
2023-02-24T21:30:09.869Z,115.20
2023-02-24T21:32:36.929Z,117.28
2023-02-24T21:35:04.497Z,119.35
2023-02-24T21:37:32.507Z,126.20
2023-02-24T21:40:00.083Z,116.97
2023-02-24T21:42:27.830Z,123.72
2023-02-24T21:45:02.285Z,114.90
2023-02-24T21:47:31.225Z,114.28
2023-02-24T21:49:57.971Z,116.30
2023-02-24T21:52:24.900Z,123.05
2023-02-24T21:54:53.005Z,123.88
2023-02-24T21:57:20.028Z,128.77
2023-02-24T21:59:46.795Z,128.77
2023-02-24T22:02:16.848Z,116.97
2023-02-24T22:04:44.693Z,118.70
2023-02-24T22:07:12.257Z,126.25
2023-02-24T22:09:39.381Z,120.97
2023-02-24T22:12:06.879Z,131.60
2023-02-24T22:14:33.733Z,135.57
2023-02-24T22:17:00.546Z,131.38
2023-02-24T22:19:27.367Z,150.52
2023-02-24T22:21:54.341Z,147.60
2023-02-24T22:24:21.173Z,131.63
2023-02-24T22:26:47.994Z,134.13
2023-02-24T22:29:14.703Z,134.02
2023-02-24T22:31:43.676Z,137.25
2023-02-24T22:34:11.110Z,133.88
2023-02-24T22:36:38.214Z,130.00
2023-02-24T22:39:05.708Z,134.50
2023-02-24T22:41:34.793Z,134.02
2023-02-24T22:44:03.872Z,126.63
2023-02-24T22:46:33.856Z,121.88
2023-02-24T22:49:00.974Z,127.60
2023-02-24T22:51:28.089Z,122.57
2023-02-24T22:53:56.513Z,121.63
2023-02-24T22:56:27.097Z,116.80
2023-02-24T22:58:54.607Z,121.93
2023-02-24T23:01:27.248Z,123.90
2023-02-24T23:03:54.326Z,124.90
2023-02-24T23:06:23.663Z,125.63
2023-02-24T23:08:51.836Z,124.30
2023-02-24T23:11:20.493Z,123.75
2023-02-24T23:13:49.783Z,129.48
2023-02-24T23:16:20.604Z,129.23
2023-02-24T23:18:51.114Z,126.13
2023-02-24T23:21:24.162Z,134.93
2023-02-24T23:23:57.029Z,118.45
2023-02-24T23:26:34.253Z,122.32
2023-02-24T23:29:01.818Z,115.13
2023-02-24T23:31:29.671Z,118.18
2023-02-24T23:33:56.535Z,121.53
2023-02-24T23:36:24.476Z,113.95
2023-02-24T23:38:51.797Z,118.97
2023-02-24T23:41:19.087Z,121.90
2023-02-24T23:43:46.072Z,114.47
2023-02-24T23:46:13.518Z,109.90
2023-02-24T23:48:40.782Z,113.88
2023-02-24T23:51:12.452Z,113.72
2023-02-24T23:53:44.863Z,117.10
2023-02-24T23:56:18.743Z,113.70
2023-02-24T23:58:49.238Z,110.90
